createdAt,value
2023-01-23T00:00:53.506Z,54.5
2023-01-23T00:06:01.616Z,54.5
2023-01-23T00:11:24.230Z,54.4
2023-01-23T00:16:47.673Z,54.4
2023-01-23T00:22:12.785Z,54.4
2023-01-23T00:27:36.232Z,54.3
2023-01-23T00:33:00.359Z,54.3
2023-01-23T00:38:23.575Z,54.3
2023-01-23T00:43:30.161Z,54.2
2023-01-23T00:48:59.541Z,54.2
2023-01-23T00:54:06.860Z,54.1
2023-01-23T00:59:29.031Z,54.1
2023-01-23T01:04:53.957Z,54.1
2023-01-23T01:09:30.766Z,54
2023-01-23T01:14:53.082Z,54
2023-01-23T01:20:16.357Z,53.9
2023-01-23T01:25:39.468Z,53.9
2023-01-23T01:31:02.409Z,53.8
2023-01-23T01:36:26.590Z,53.8
2023-01-23T01:41:49.347Z,53.8
2023-01-23T01:47:12.440Z,53.8
2023-01-23T01:52:35.795Z,53.7
2023-01-23T01:57:42.673Z,53.6
2023-01-23T02:02:34.426Z,53.6
2023-01-23T02:07:42.451Z,53.6
2023-01-23T02:13:05.546Z,53.5
2023-01-23T02:18:28.401Z,53.5
2023-01-23T02:23:38.556Z,53.4
2023-01-23T02:29:01.737Z,53.4
2023-01-23T02:34:25.153Z,53.4
2023-01-23T02:39:48.579Z,53.4
2023-01-23T02:44:56.797Z,53.3
2023-01-23T02:50:20.343Z,53.3
2023-01-23T02:55:43.210Z,53.2
2023-01-23T03:01:06.688Z,53.2
2023-01-23T03:06:29.671Z,53.1
2023-01-23T03:11:52.637Z,53.1
2023-01-23T03:17:00.024Z,53.1
2023-01-23T03:22:21.204Z,53
2023-01-23T03:27:29.159Z,53
2023-01-23T03:32:52.862Z,52.9
2023-01-23T03:38:15.456Z,52.9
2023-01-23T03:43:07.899Z,52.9
2023-01-23T03:48:15.488Z,52.9
2023-01-23T03:53:22.709Z,52.8
2023-01-23T03:58:30.069Z,52.8
2023-01-23T04:03:23.045Z,52.7
2023-01-23T04:08:30.238Z,52.7
2023-01-23T04:13:44.857Z,52.7
2023-01-23T04:18:52.360Z,52.6
2023-01-23T04:24:14.565Z,52.6
2023-01-23T04:29:37.312Z,52.6
2023-01-23T04:35:01.818Z,52.5
2023-01-23T04:40:24.906Z,52.5
2023-01-23T04:45:49.119Z,52.4
2023-01-23T05:01:27.859Z,52.3
2023-01-23T05:06:51.741Z,52.3
2023-01-23T05:12:17.115Z,52.3
2023-01-23T05:17:25.159Z,52.2
2023-01-23T05:22:33.311Z,52.2
2023-01-23T05:27:40.111Z,52.1
2023-01-23T05:33:03.657Z,52.1
2023-01-23T05:38:14.677Z,52.1
2023-01-23T05:43:38.609Z,52.1
2023-01-23T05:48:31.077Z,52
2023-01-23T05:53:55.014Z,52
2023-01-23T06:09:20.787Z,51.9
2023-01-23T06:14:28.181Z,51.8
2023-01-23T06:19:38.464Z,51.8
2023-01-23T06:25:02.662Z,51.8
2023-01-23T06:30:25.565Z,51.7
2023-01-23T06:35:52.778Z,51.7
2023-01-23T06:41:01.217Z,51.6
2023-01-23T06:46:26.823Z,51.6
2023-01-23T06:51:50.121Z,51.6
2023-01-23T06:57:13.927Z,51.5
2023-01-23T07:02:37.436Z,51.5
2023-01-23T07:08:00.107Z,51.4
2023-01-23T07:13:23.834Z,51.1
2023-01-23T07:18:49.334Z,51
2023-01-23T07:23:56.175Z,50.9
2023-01-23T07:29:20.028Z,50.9
2023-01-23T07:34:44.866Z,50.8
2023-01-23T07:40:07.932Z,50.6
2023-01-23T07:45:31.469Z,47.3
2023-01-23T07:50:55.418Z,45.2
2023-01-23T07:56:20.989Z,44.7
2023-01-23T08:01:50.077Z,44.6
2023-01-23T08:06:57.334Z,44.5
2023-01-23T08:12:29.571Z,44.4
2023-01-23T08:17:37.856Z,44.4
2023-01-23T08:23:00.756Z,44.3
2023-01-23T08:28:07.587Z,44.3
2023-01-23T08:33:31.961Z,44.3
2023-01-23T08:38:39.894Z,44.1
2023-01-23T08:44:03.699Z,44
2023-01-23T08:49:28.096Z,43.8
2023-01-23T08:54:51.546Z,43.5
2023-01-23T09:00:16.314Z,43.4
2023-01-23T09:05:40.683Z,43.3
2023-01-23T09:10:49.127Z,43.1
2023-01-23T09:15:56.396Z,43.1
2023-01-23T09:21:21.031Z,43.1
2023-01-23T09:26:44.424Z,42.9
2023-01-23T09:32:08.301Z,42.8
2023-01-23T09:37:48.281Z,42.8
2023-01-23T09:42:57.700Z,42.7
2023-01-23T09:48:21.429Z,42.6
2023-01-23T09:53:30.015Z,42.6
2023-01-23T09:58:37.530Z,42.6
2023-01-23T10:04:16.973Z,42.5
2023-01-23T10:09:41.116Z,42.4
2023-01-23T10:15:09.524Z,42.1
2023-01-23T10:20:52.094Z,41.9
2023-01-23T10:26:25.358Z,41.8
2023-01-23T10:31:48.463Z,41.7
2023-01-23T10:37:26.783Z,41.7
2023-01-23T10:42:52.951Z,41.6
2023-01-23T10:48:32.708Z,41.6
2023-01-23T10:53:59.658Z,41.5
2023-01-23T10:59:40.846Z,41.5
2023-01-23T11:04:55.721Z,41.4
2023-01-23T11:10:26.608Z,41.4
2023-01-23T11:15:52.757Z,41.3
2023-01-23T11:21:15.522Z,41.3
2023-01-23T11:26:52.667Z,41.1
2023-01-23T11:32:20.217Z,40.9
2023-01-23T11:37:42.954Z,39.8
2023-01-23T11:43:13.441Z,38.1
2023-01-23T11:48:46.928Z,37.8
2023-01-23T11:54:14.952Z,38.7
2023-01-23T11:59:29.272Z,39.7
2023-01-23T12:05:13.450Z,40.8
2023-01-23T12:10:52.005Z,41.8
2023-01-23T12:16:15.770Z,42.8
2023-01-23T12:21:24.301Z,43.8
2023-01-23T12:26:48.675Z,44.8
2023-01-23T12:32:12.703Z,45.9
2023-01-23T12:38:04.072Z,46.8
2023-01-23T12:43:27.984Z,46.9
2023-01-23T12:48:51.547Z,46.9
2023-01-23T12:54:16.537Z,46.9
2023-01-23T13:00:04.889Z,46.9
2023-01-23T13:05:42.454Z,46.9
2023-01-23T13:11:26.626Z,46.9
2023-01-23T13:17:20.630Z,46.9
2023-01-23T13:22:49.365Z,46.9
2023-01-23T13:28:14.386Z,46.8
2023-01-23T13:33:51.796Z,46.8
2023-01-23T13:39:22.991Z,46.8
2023-01-23T13:45:05.765Z,46.8
2023-01-23T13:50:14.058Z,46.8
2023-01-23T13:55:37.715Z,46.8
2023-01-23T14:01:01.643Z,46.7
2023-01-23T14:06:23.886Z,46.7
2023-01-23T14:11:47.364Z,46.6
2023-01-23T14:17:11.728Z,46.6
2023-01-23T14:22:47.574Z,46.6
2023-01-23T14:28:27.589Z,46.6
2023-01-23T14:33:54.293Z,46.6
2023-01-23T14:39:09.562Z,46.5
2023-01-23T14:45:15.244Z,46.5
2023-01-23T14:50:56.080Z,46.4
2023-01-23T14:56:38.949Z,46.4
2023-01-23T15:02:10.336Z,46.4
2023-01-23T15:07:37.940Z,46.4
2023-01-23T15:13:00.948Z,46.4
2023-01-23T15:18:24.763Z,46.3
2023-01-23T15:23:49.277Z,46.3
2023-01-23T15:29:24.620Z,46.3
2023-01-23T15:34:49.472Z,46.3
2023-01-23T15:40:14.261Z,46.1
2023-01-23T15:45:51.654Z,46
2023-01-23T15:51:22.920Z,45.9
2023-01-23T15:56:53.739Z,45.9
2023-01-23T16:02:31.429Z,45.8
2023-01-23T16:08:03.610Z,45.8
2023-01-23T16:13:35.705Z,45.8
2023-01-23T16:18:55.800Z,45.7
2023-01-23T16:24:53.715Z,45.7
2023-01-23T16:30:34.896Z,45.7
2023-01-23T16:35:58.722Z,45.7
2023-01-23T16:41:22.565Z,45.6
2023-01-23T16:46:47.087Z,45.6
2023-01-23T16:52:27.261Z,45.5
2023-01-23T16:58:03.523Z,45.5
2023-01-23T17:03:42.583Z,45.4
2023-01-23T17:09:06.070Z,45.4
2023-01-23T17:14:28.442Z,45.4
2023-01-23T17:19:04.379Z,45.4
2023-01-23T17:24:27.921Z,45.4
2023-01-23T17:30:13.897Z,45.3
2023-01-23T17:35:44.684Z,45.3
2023-01-23T17:41:07.970Z,45.3
2023-01-23T17:46:33.341Z,45.3
2023-01-23T17:51:41.532Z,45.2
2023-01-23T17:57:07.146Z,45.2
2023-01-23T18:02:33.049Z,45.1
2023-01-23T18:07:52.971Z,45.1
2023-01-23T18:13:19.054Z,45.1
2023-01-23T18:18:50.813Z,45.1
2023-01-23T18:24:04.497Z,45
2023-01-23T18:29:00.506Z,45
2023-01-23T18:34:00.445Z,44.9
2023-01-23T18:39:19.279Z,44.9
2023-01-23T18:44:36.460Z,44.9
2023-01-23T18:50:41.425Z,44.9
2023-01-23T18:56:18.432Z,44.9
2023-01-23T19:02:09.921Z,44.8
2023-01-23T19:07:50.489Z,44.8
2023-01-23T19:13:22.816Z,44.8
2023-01-23T19:19:17.305Z,44.7
2023-01-23T19:24:54.387Z,44.7
2023-01-23T19:30:46.440Z,44.7
2023-01-23T19:36:24.083Z,44.6
2023-01-23T19:41:59.170Z,44.6
2023-01-23T19:48:02.239Z,44.6
2023-01-23T19:53:40.444Z,44.5
2023-01-23T19:58:32.144Z,44.5
2023-01-23T20:03:51.775Z,44.4
2023-01-23T20:09:05.323Z,44.4
2023-01-23T20:14:35.749Z,44.4
2023-01-23T20:20:04.394Z,44.4
2023-01-23T20:25:35.553Z,44.3
2023-01-23T20:31:06.935Z,44.3
2023-01-23T20:36:19.565Z,44.3
2023-01-23T20:41:44.949Z,44.3
2023-01-23T20:47:10.672Z,44.2
2023-01-23T20:52:35.666Z,44.2
2023-01-23T20:58:03.532Z,44.1
2023-01-23T21:03:14.023Z,44.1
2023-01-23T21:07:53.274Z,44.1
2023-01-23T21:13:01.731Z,44
2023-01-23T21:18:25.933Z,43.9
2023-01-23T21:23:51.551Z,44
2023-01-23T21:29:14.356Z,43.9
2023-01-23T21:34:36.995Z,43.9
2023-01-23T21:39:46.025Z,43.9
2023-01-23T21:45:09.033Z,43.9
2023-01-23T21:50:31.033Z,43.8
2023-01-23T21:55:24.442Z,43.8
2023-01-23T22:00:47.093Z,43.8
2023-01-23T22:06:10.704Z,43.8
2023-01-23T22:11:35.200Z,43.7
2023-01-23T22:17:19.482Z,43.7
2023-01-23T22:22:42.741Z,43.6
2023-01-23T22:28:07.082Z,43.6
2023-01-23T22:33:40.102Z,43.6
2023-01-23T22:39:03.091Z,43.6
2023-01-23T22:44:27.774Z,43.5
2023-01-23T22:49:51.355Z,43.5
2023-01-23T22:55:16.673Z,43.4
2023-01-23T23:00:25.291Z,43.4
2023-01-23T23:05:49.113Z,43.4
2023-01-23T23:10:40.565Z,43.4
2023-01-23T23:15:33.297Z,43.4
2023-01-23T23:20:41.190Z,43.3
2023-01-23T23:26:03.763Z,43.3
2023-01-23T23:30:56.562Z,43.3
2023-01-23T23:36:20.270Z,43.3
2023-01-23T23:41:42.916Z,43.2
2023-01-23T23:47:06.943Z,43.2
2023-01-23T23:52:29.895Z,43.2
2023-01-23T23:57:37.034Z,43.1
